sensor_id;sensor_type;location;lat;lon;timestamp;P1;durP1;ratioP1;P2;durP2;ratioP2
13660;SDS011;6903;49.480;11.102;2022-09-01T00:02:08;5.83;;;5.30;;
13660;SDS011;6903;49.480;11.102;2022-09-01T00:04:35;7.10;;;5.43;;
13660;SDS011;6903;49.480;11.102;2022-09-01T00:07:06;7.03;;;5.60;;
13660;SDS011;6903;49.480;11.102;2022-09-01T00:09:32;6.00;;;5.50;;
13660;SDS011;6903;49.480;11.102;2022-09-01T00:11:59;6.50;;;5.50;;
13660;SDS011;6903;49.480;11.102;2022-09-01T00:14:26;5.67;;;5.13;;
13660;SDS011;6903;49.480;11.102;2022-09-01T00:16:54;5.73;;;5.20;;
13660;SDS011;6903;49.480;11.102;2022-09-01T00:19:20;6.30;;;5.70;;
13660;SDS011;6903;49.480;11.102;2022-09-01T00:21:46;6.10;;;5.57;;
13660;SDS011;6903;49.480;11.102;2022-09-01T00:24:12;6.83;;;5.83;;
13660;SDS011;6903;49.480;11.102;2022-09-01T00:26:40;6.20;;;5.60;;
13660;SDS011;6903;49.480;11.102;2022-09-01T00:29:05;5.93;;;4.93;;
13660;SDS011;6903;49.480;11.102;2022-09-01T00:31:32;5.47;;;4.73;;
13660;SDS011;6903;49.480;11.102;2022-09-01T00:33:58;5.73;;;5.27;;
13660;SDS011;6903;49.480;11.102;2022-09-01T00:36:25;6.10;;;5.60;;
13660;SDS011;6903;49.480;11.102;2022-09-01T00:38:50;6.93;;;6.03;;
13660;SDS011;6903;49.480;11.102;2022-09-01T00:41:17;6.87;;;6.20;;
13660;SDS011;6903;49.480;11.102;2022-09-01T00:43:49;6.57;;;5.93;;
13660;SDS011;6903;49.480;11.102;2022-09-01T00:46:27;6.27;;;5.67;;
13660;SDS011;6903;49.480;11.102;2022-09-01T00:48:58;6.53;;;5.97;;
13660;SDS011;6903;49.480;11.102;2022-09-01T00:51:35;6.67;;;6.07;;
13660;SDS011;6903;49.480;11.102;2022-09-01T00:54:03;6.80;;;6.20;;
13660;SDS011;6903;49.480;11.102;2022-09-01T00:56:30;7.17;;;6.23;;
13660;SDS011;6903;49.480;11.102;2022-09-01T00:58:57;6.47;;;5.87;;
13660;SDS011;6903;49.480;11.102;2022-09-01T01:01:24;6.63;;;6.07;;
13660;SDS011;6903;49.480;11.102;2022-09-01T01:03:50;6.77;;;6.10;;
13660;SDS011;6903;49.480;11.102;2022-09-01T01:06:15;7.00;;;6.40;;
13660;SDS011;6903;49.480;11.102;2022-09-01T01:08:45;6.47;;;5.87;;
13660;SDS011;6903;49.480;11.102;2022-09-01T01:11:22;6.27;;;5.70;;
13660;SDS011;6903;49.480;11.102;2022-09-01T01:13:54;6.73;;;6.13;;
13660;SDS011;6903;49.480;11.102;2022-09-01T01:16:24;6.70;;;6.10;;
13660;SDS011;6903;49.480;11.102;2022-09-01T01:18:51;7.20;;;6.07;;
13660;SDS011;6903;49.480;11.102;2022-09-01T01:21:18;6.00;;;5.47;;
13660;SDS011;6903;49.480;11.102;2022-09-01T01:24:17;6.83;;;6.23;;
13660;SDS011;6903;49.480;11.102;2022-09-01T01:26:46;6.27;;;5.63;;
13660;SDS011;6903;49.480;11.102;2022-09-01T01:29:11;7.00;;;6.37;;
13660;SDS011;6903;49.480;11.102;2022-09-01T01:31:37;6.30;;;5.80;;
13660;SDS011;6903;49.480;11.102;2022-09-01T01:34:03;7.27;;;6.57;;
13660;SDS011;6903;49.480;11.102;2022-09-01T01:36:32;7.53;;;6.77;;
13660;SDS011;6903;49.480;11.102;2022-09-01T01:39:05;6.30;;;5.40;;
13660;SDS011;6903;49.480;11.102;2022-09-01T01:41:33;7.67;;;6.87;;
13660;SDS011;6903;49.480;11.102;2022-09-01T01:44:00;6.67;;;6.10;;
13660;SDS011;6903;49.480;11.102;2022-09-01T01:46:28;6.20;;;5.70;;
13660;SDS011;6903;49.480;11.102;2022-09-01T01:48:54;7.00;;;6.30;;
13660;SDS011;6903;49.480;11.102;2022-09-01T01:51:20;6.97;;;6.37;;
13660;SDS011;6903;49.480;11.102;2022-09-01T01:53:52;6.90;;;6.33;;
13660;SDS011;6903;49.480;11.102;2022-09-01T01:56:19;7.03;;;6.43;;
13660;SDS011;6903;49.480;11.102;2022-09-01T01:58:47;7.37;;;6.70;;
13660;SDS011;6903;49.480;11.102;2022-09-01T02:01:13;6.47;;;5.87;;
13660;SDS011;6903;49.480;11.102;2022-09-01T02:03:41;7.23;;;6.53;;
13660;SDS011;6903;49.480;11.102;2022-09-01T02:06:07;7.53;;;6.83;;
13660;SDS011;6903;49.480;11.102;2022-09-01T02:08:36;7.27;;;6.67;;
13660;SDS011;6903;49.480;11.102;2022-09-01T02:11:03;7.73;;;7.00;;
13660;SDS011;6903;49.480;11.102;2022-09-01T02:13:29;7.87;;;7.17;;
13660;SDS011;6903;49.480;11.102;2022-09-01T02:15:56;11.17;;;7.33;;
13660;SDS011;6903;49.480;11.102;2022-09-01T02:18:26;8.37;;;7.67;;
13660;SDS011;6903;49.480;11.102;2022-09-01T02:20:55;8.37;;;7.57;;
13660;SDS011;6903;49.480;11.102;2022-09-01T02:23:22;8.33;;;7.63;;
13660;SDS011;6903;49.480;11.102;2022-09-01T02:25:49;7.63;;;6.93;;
13660;SDS011;6903;49.480;11.102;2022-09-01T02:28:19;9.10;;;7.13;;
13660;SDS011;6903;49.480;11.102;2022-09-01T02:30:47;8.80;;;7.90;;
13660;SDS011;6903;49.480;11.102;2022-09-01T02:33:16;8.60;;;7.77;;
13660;SDS011;6903;49.480;11.102;2022-09-01T02:35:46;8.73;;;8.00;;
13660;SDS011;6903;49.480;11.102;2022-09-01T02:38:21;10.80;;;8.37;;
13660;SDS011;6903;49.480;11.102;2022-09-01T02:40:50;9.13;;;8.33;;
13660;SDS011;6903;49.480;11.102;2022-09-01T02:43:17;9.03;;;8.23;;
13660;SDS011;6903;49.480;11.102;2022-09-01T02:45:44;9.67;;;8.63;;
13660;SDS011;6903;49.480;11.102;2022-09-01T02:48:19;8.17;;;7.37;;
13660;SDS011;6903;49.480;11.102;2022-09-01T02:50:59;9.70;;;8.80;;
13660;SDS011;6903;49.480;11.102;2022-09-01T02:53:29;11.00;;;8.90;;
13660;SDS011;6903;49.480;11.102;2022-09-01T02:55:55;9.47;;;8.57;;
13660;SDS011;6903;49.480;11.102;2022-09-01T02:58:28;9.33;;;8.47;;
13660;SDS011;6903;49.480;11.102;2022-09-01T03:00:57;11.17;;;9.30;;
13660;SDS011;6903;49.480;11.102;2022-09-01T03:03:23;10.13;;;9.23;;
13660;SDS011;6903;49.480;11.102;2022-09-01T03:05:52;9.80;;;8.90;;
13660;SDS011;6903;49.480;11.102;2022-09-01T03:08:23;10.50;;;9.60;;
13660;SDS011;6903;49.480;11.102;2022-09-01T03:10:49;10.37;;;9.37;;
13660;SDS011;6903;49.480;11.102;2022-09-01T03:13:19;11.23;;;10.13;;
13660;SDS011;6903;49.480;11.102;2022-09-01T03:15:47;11.33;;;10.23;;
13660;SDS011;6903;49.480;11.102;2022-09-01T03:18:14;10.83;;;9.83;;
13660;SDS011;6903;49.480;11.102;2022-09-01T03:20:40;11.20;;;10.20;;
13660;SDS011;6903;49.480;11.102;2022-09-01T03:23:09;11.17;;;10.17;;
13660;SDS011;6903;49.480;11.102;2022-09-01T03:25:39;12.17;;;10.93;;
13660;SDS011;6903;49.480;11.102;2022-09-01T03:28:05;12.90;;;11.60;;
13660;SDS011;6903;49.480;11.102;2022-09-01T03:30:31;13.87;;;12.47;;
13660;SDS011;6903;49.480;11.102;2022-09-01T03:33:00;13.47;;;11.97;;
13660;SDS011;6903;49.480;11.102;2022-09-01T03:35:26;14.37;;;13.00;;
13660;SDS011;6903;49.480;11.102;2022-09-01T03:37:54;14.60;;;13.23;;
13660;SDS011;6903;49.480;11.102;2022-09-01T03:40:23;13.87;;;12.63;;
13660;SDS011;6903;49.480;11.102;2022-09-01T03:42:51;13.73;;;12.33;;
13660;SDS011;6903;49.480;11.102;2022-09-01T03:45:17;13.40;;;12.07;;
13660;SDS011;6903;49.480;11.102;2022-09-01T03:47:44;13.20;;;11.90;;
13660;SDS011;6903;49.480;11.102;2022-09-01T03:50:14;13.43;;;12.03;;
13660;SDS011;6903;49.480;11.102;2022-09-01T03:52:52;13.27;;;11.93;;
13660;SDS011;6903;49.480;11.102;2022-09-01T03:55:20;14.03;;;12.43;;
13660;SDS011;6903;49.480;11.102;2022-09-01T03:57:54;13.77;;;12.57;;
13660;SDS011;6903;49.480;11.102;2022-09-01T04:00:25;14.03;;;12.63;;
13660;SDS011;6903;49.480;11.102;2022-09-01T04:02:55;13.17;;;11.60;;
13660;SDS011;6903;49.480;11.102;2022-09-01T04:05:26;12.20;;;11.10;;
13660;SDS011;6903;49.480;11.102;2022-09-01T04:07:55;13.57;;;12.27;;
13660;SDS011;6903;49.480;11.102;2022-09-01T04:10:24;13.50;;;11.57;;
13660;SDS011;6903;49.480;11.102;2022-09-01T04:12:49;12.57;;;11.37;;
13660;SDS011;6903;49.480;11.102;2022-09-01T04:15:15;12.57;;;11.37;;
13660;SDS011;6903;49.480;11.102;2022-09-01T04:17:45;11.53;;;10.43;;
13660;SDS011;6903;49.480;11.102;2022-09-01T04:20:52;11.77;;;10.57;;
13660;SDS011;6903;49.480;11.102;2022-09-01T04:23:22;11.10;;;10.00;;
13660;SDS011;6903;49.480;11.102;2022-09-01T04:25:58;11.33;;;10.07;;
13660;SDS011;6903;49.480;11.102;2022-09-01T04:28:32;11.03;;;9.70;;
13660;SDS011;6903;49.480;11.102;2022-09-01T04:31:01;10.50;;;9.50;;
13660;SDS011;6903;49.480;11.102;2022-09-01T04:33:32;10.83;;;9.30;;
13660;SDS011;6903;49.480;11.102;2022-09-01T04:36:04;10.83;;;9.80;;
13660;SDS011;6903;49.480;11.102;2022-09-01T04:38:30;10.97;;;9.97;;
13660;SDS011;6903;49.480;11.102;2022-09-01T04:41:04;10.43;;;9.53;;
13660;SDS011;6903;49.480;11.102;2022-09-01T04:43:31;10.17;;;9.17;;
13660;SDS011;6903;49.480;11.102;2022-09-01T04:45:57;9.67;;;8.67;;
13660;SDS011;6903;49.480;11.102;2022-09-01T04:48:23;10.63;;;9.63;;
13660;SDS011;6903;49.480;11.102;2022-09-01T04:50:49;9.77;;;8.87;;
13660;SDS011;6903;49.480;11.102;2022-09-01T04:53:16;10.67;;;9.67;;
13660;SDS011;6903;49.480;11.102;2022-09-01T04:55:43;9.70;;;8.80;;
13660;SDS011;6903;49.480;11.102;2022-09-01T04:58:10;10.00;;;9.10;;
13660;SDS011;6903;49.480;11.102;2022-09-01T05:00:38;9.17;;;8.43;;
13660;SDS011;6903;49.480;11.102;2022-09-01T05:03:04;9.53;;;8.73;;
13660;SDS011;6903;49.480;11.102;2022-09-01T05:05:37;10.10;;;8.10;;
13660;SDS011;6903;49.480;11.102;2022-09-01T05:08:07;10.10;;;9.10;;
13660;SDS011;6903;49.480;11.102;2022-09-01T05:10:38;8.03;;;7.23;;
13660;SDS011;6903;49.480;11.102;2022-09-01T05:13:06;6.10;;;5.50;;
13660;SDS011;6903;49.480;11.102;2022-09-01T05:15:34;6.13;;;5.57;;
13660;SDS011;6903;49.480;11.102;2022-09-01T05:18:01;5.83;;;5.33;;
13660;SDS011;6903;49.480;11.102;2022-09-01T05:20:35;5.40;;;4.90;;
13660;SDS011;6903;49.480;11.102;2022-09-01T05:23:02;6.27;;;4.47;;
13660;SDS011;6903;49.480;11.102;2022-09-01T05:25:29;5.00;;;4.50;;
13660;SDS011;6903;49.480;11.102;2022-09-01T05:27:54;5.57;;;4.00;;
13660;SDS011;6903;49.480;11.102;2022-09-01T05:30:21;4.33;;;3.90;;
13660;SDS011;6903;49.480;11.102;2022-09-01T05:32:46;4.65;;;4.05;;
13660;SDS011;6903;49.480;11.102;2022-09-01T05:35:13;4.25;;;3.95;;
13660;SDS011;6903;49.480;11.102;2022-09-01T05:37:38;4.82;;;4.43;;
13660;SDS011;6903;49.480;11.102;2022-09-01T05:40:05;5.00;;;4.40;;
13660;SDS011;6903;49.480;11.102;2022-09-01T05:42:33;5.47;;;4.97;;
13660;SDS011;6903;49.480;11.102;2022-09-01T05:45:01;5.17;;;4.67;;
13660;SDS011;6903;49.480;11.102;2022-09-01T05:47:26;5.97;;;5.00;;
13660;SDS011;6903;49.480;11.102;2022-09-01T05:49:52;4.83;;;4.43;;
13660;SDS011;6903;49.480;11.102;2022-09-01T05:52:19;4.77;;;4.37;;
13660;SDS011;6903;49.480;11.102;2022-09-01T05:54:48;4.40;;;4.10;;
13660;SDS011;6903;49.480;11.102;2022-09-01T05:57:15;4.38;;;3.97;;
13660;SDS011;6903;49.480;11.102;2022-09-01T05:59:41;4.20;;;3.53;;
13660;SDS011;6903;49.480;11.102;2022-09-01T06:02:07;3.40;;;3.10;;
13660;SDS011;6903;49.480;11.102;2022-09-01T06:04:33;4.07;;;3.60;;
13660;SDS011;6903;49.480;11.102;2022-09-01T06:06:59;3.38;;;3.08;;
13660;SDS011;6903;49.480;11.102;2022-09-01T06:09:24;4.50;;;3.30;;
13660;SDS011;6903;49.480;11.102;2022-09-01T06:11:50;3.55;;;3.20;;
13660;SDS011;6903;49.480;11.102;2022-09-01T06:14:17;3.90;;;3.42;;
13660;SDS011;6903;49.480;11.102;2022-09-01T06:16:42;4.47;;;3.58;;
13660;SDS011;6903;49.480;11.102;2022-09-01T06:19:09;5.72;;;3.13;;
13660;SDS011;6903;49.480;11.102;2022-09-01T06:21:37;3.42;;;3.13;;
13660;SDS011;6903;49.480;11.102;2022-09-01T06:24:03;4.75;;;3.20;;
13660;SDS011;6903;49.480;11.102;2022-09-01T06:26:31;5.72;;;3.45;;
13660;SDS011;6903;49.480;11.102;2022-09-01T06:28:59;4.30;;;3.90;;
13660;SDS011;6903;49.480;11.102;2022-09-01T06:31:29;4.50;;;3.65;;
13660;SDS011;6903;49.480;11.102;2022-09-01T06:33:58;5.20;;;3.83;;
13660;SDS011;6903;49.480;11.102;2022-09-01T06:36:25;4.03;;;3.30;;
13660;SDS011;6903;49.480;11.102;2022-09-01T06:38:50;4.00;;;3.25;;
13660;SDS011;6903;49.480;11.102;2022-09-01T06:41:17;5.70;;;3.42;;
13660;SDS011;6903;49.480;11.102;2022-09-01T06:43:47;3.40;;;3.10;;
13660;SDS011;6903;49.480;11.102;2022-09-01T06:46:14;4.07;;;3.42;;
13660;SDS011;6903;49.480;11.102;2022-09-01T06:48:41;4.20;;;3.22;;
13660;SDS011;6903;49.480;11.102;2022-09-01T06:51:10;5.20;;;3.35;;
13660;SDS011;6903;49.480;11.102;2022-09-01T06:53:37;3.67;;;3.38;;
13660;SDS011;6903;49.480;11.102;2022-09-01T06:56:03;4.15;;;3.35;;
13660;SDS011;6903;49.480;11.102;2022-09-01T06:58:28;5.70;;;3.42;;
13660;SDS011;6903;49.480;11.102;2022-09-01T07:00:55;3.60;;;2.80;;
13660;SDS011;6903;49.480;11.102;2022-09-01T07:03:20;3.13;;;2.80;;
13660;SDS011;6903;49.480;11.102;2022-09-01T07:05:46;5.35;;;3.00;;
13660;SDS011;6903;49.480;11.102;2022-09-01T07:08:16;3.88;;;3.00;;
13660;SDS011;6903;49.480;11.102;2022-09-01T07:10:47;3.20;;;2.90;;
13660;SDS011;6903;49.480;11.102;2022-09-01T07:13:16;3.75;;;2.70;;
13660;SDS011;6903;49.480;11.102;2022-09-01T07:15:46;3.97;;;3.38;;
13660;SDS011;6903;49.480;11.102;2022-09-01T07:18:14;3.60;;;3.28;;
13660;SDS011;6903;49.480;11.102;2022-09-01T07:20:45;3.75;;;3.13;;
13660;SDS011;6903;49.480;11.102;2022-09-01T07:23:13;3.28;;;3.00;;
13660;SDS011;6903;49.480;11.102;2022-09-01T07:25:41;3.33;;;3.03;;
13660;SDS011;6903;49.480;11.102;2022-09-01T07:28:09;4.53;;;2.95;;
13660;SDS011;6903;49.480;11.102;2022-09-01T07:30:42;4.68;;;3.05;;
13660;SDS011;6903;49.480;11.102;2022-09-01T07:33:10;4.47;;;3.05;;
13660;SDS011;6903;49.480;11.102;2022-09-01T07:35:38;4.10;;;2.97;;
13660;SDS011;6903;49.480;11.102;2022-09-01T07:38:04;3.83;;;2.67;;
13660;SDS011;6903;49.480;11.102;2022-09-01T07:40:34;5.78;;;3.22;;
13660;SDS011;6903;49.480;11.102;2022-09-01T07:43:03;4.38;;;3.20;;
13660;SDS011;6903;49.480;11.102;2022-09-01T07:45:32;4.45;;;2.97;;
13660;SDS011;6903;49.480;11.102;2022-09-01T07:48:00;3.63;;;3.33;;
13660;SDS011;6903;49.480;11.102;2022-09-01T07:50:31;3.78;;;3.10;;
13660;SDS011;6903;49.480;11.102;2022-09-01T07:53:00;4.88;;;3.08;;
13660;SDS011;6903;49.480;11.102;2022-09-01T07:55:26;4.25;;;3.22;;
13660;SDS011;6903;49.480;11.102;2022-09-01T07:57:52;4.18;;;3.05;;
13660;SDS011;6903;49.480;11.102;2022-09-01T08:00:17;4.20;;;3.05;;
13660;SDS011;6903;49.480;11.102;2022-09-01T08:02:46;3.58;;;3.22;;
13660;SDS011;6903;49.480;11.102;2022-09-01T08:05:13;5.18;;;3.08;;
13660;SDS011;6903;49.480;11.102;2022-09-01T08:07:41;3.08;;;2.88;;
13660;SDS011;6903;49.480;11.102;2022-09-01T08:10:07;3.97;;;2.75;;
13660;SDS011;6903;49.480;11.102;2022-09-01T08:12:33;3.85;;;3.03;;
13660;SDS011;6903;49.480;11.102;2022-09-01T08:15:03;3.05;;;2.78;;
13660;SDS011;6903;49.480;11.102;2022-09-01T08:17:29;3.53;;;2.78;;
13660;SDS011;6903;49.480;11.102;2022-09-01T08:19:55;3.80;;;3.05;;
13660;SDS011;6903;49.480;11.102;2022-09-01T08:22:20;4.50;;;3.33;;
13660;SDS011;6903;49.480;11.102;2022-09-01T08:24:48;3.80;;;3.10;;
13660;SDS011;6903;49.480;11.102;2022-09-01T08:27:13;3.90;;;3.38;;
13660;SDS011;6903;49.480;11.102;2022-09-01T08:29:39;4.30;;;3.28;;
13660;SDS011;6903;49.480;11.102;2022-09-01T08:32:04;4.15;;;2.80;;
13660;SDS011;6903;49.480;11.102;2022-09-01T08:34:31;4.35;;;3.25;;
13660;SDS011;6903;49.480;11.102;2022-09-01T08:36:56;3.00;;;2.70;;
13660;SDS011;6903;49.480;11.102;2022-09-01T08:39:22;3.10;;;2.70;;
13660;SDS011;6903;49.480;11.102;2022-09-01T08:47:11;4.15;;;2.80;;
13660;SDS011;6903;49.480;11.102;2022-09-01T08:49:38;2.70;;;2.50;;
13660;SDS011;6903;49.480;11.102;2022-09-01T08:55:08;3.10;;;2.53;;
13660;SDS011;6903;49.480;11.102;2022-09-01T08:57:41;3.50;;;2.63;;
13660;SDS011;6903;49.480;11.102;2022-09-01T09:00:14;3.42;;;2.63;;
13660;SDS011;6903;49.480;11.102;2022-09-01T09:10:31;2.92;;;2.40;;
13660;SDS011;6903;49.480;11.102;2022-09-01T09:15:46;3.22;;;2.50;;
13660;SDS011;6903;49.480;11.102;2022-09-01T09:18:24;2.42;;;2.22;;
13660;SDS011;6903;49.480;11.102;2022-09-01T09:20:59;3.20;;;2.90;;
13660;SDS011;6903;49.480;11.102;2022-09-01T09:23:33;6.18;;;2.55;;
13660;SDS011;6903;49.480;11.102;2022-09-01T09:26:03;2.92;;;2.70;;
13660;SDS011;6903;49.480;11.102;2022-09-01T09:28:29;2.80;;;2.60;;
13660;SDS011;6903;49.480;11.102;2022-09-01T09:33:59;3.00;;;2.58;;
13660;SDS011;6903;49.480;11.102;2022-09-01T09:36:33;3.42;;;2.58;;
13660;SDS011;6903;49.480;11.102;2022-09-01T09:39:08;4.25;;;2.40;;
13660;SDS011;6903;49.480;11.102;2022-09-01T09:41:36;4.05;;;2.50;;
13660;SDS011;6903;49.480;11.102;2022-09-01T09:44:15;2.47;;;2.28;;
13660;SDS011;6903;49.480;11.102;2022-09-01T09:46:46;3.80;;;2.63;;
13660;SDS011;6903;49.480;11.102;2022-09-01T09:51:51;3.10;;;2.45;;
13660;SDS011;6903;49.480;11.102;2022-09-01T09:54:28;4.20;;;2.45;;
13660;SDS011;6903;49.480;11.102;2022-09-01T09:57:04;3.20;;;2.80;;
13660;SDS011;6903;49.480;11.102;2022-09-01T09:59:31;3.40;;;2.60;;
13660;SDS011;6903;49.480;11.102;2022-09-01T10:02:13;3.72;;;2.50;;
13660;SDS011;6903;49.480;11.102;2022-09-01T10:04:46;2.50;;;2.30;;
13660;SDS011;6903;49.480;11.102;2022-09-01T10:07:29;4.18;;;2.42;;
13660;SDS011;6903;49.480;11.102;2022-09-01T10:10:00;7.03;;;2.30;;
13660;SDS011;6903;49.480;11.102;2022-09-01T10:12:28;2.47;;;2.28;;
13660;SDS011;6903;49.480;11.102;2022-09-01T10:14:57;2.30;;;2.10;;
13660;SDS011;6903;49.480;11.102;2022-09-01T10:17:30;4.40;;;2.40;;
13660;SDS011;6903;49.480;11.102;2022-09-01T10:20:18;3.35;;;2.17;;
13660;SDS011;6903;49.480;11.102;2022-09-01T10:22:46;3.53;;;2.05;;
13660;SDS011;6903;49.480;11.102;2022-09-01T10:25:15;2.67;;;2.28;;
13660;SDS011;6903;49.480;11.102;2022-09-01T10:27:44;5.00;;;2.33;;
13660;SDS011;6903;49.480;11.102;2022-09-01T10:30:14;3.70;;;2.20;;
13660;SDS011;6903;49.480;11.102;2022-09-01T10:32:43;2.92;;;2.30;;
13660;SDS011;6903;49.480;11.102;2022-09-01T10:35:11;2.50;;;2.30;;
13660;SDS011;6903;49.480;11.102;2022-09-01T10:37:42;2.17;;;1.95;;
13660;SDS011;6903;49.480;11.102;2022-09-01T10:45:51;2.38;;;2.17;;
13660;SDS011;6903;49.480;11.102;2022-09-01T10:50:49;3.28;;;2.13;;
13660;SDS011;6903;49.480;11.102;2022-09-01T11:04:15;4.05;;;2.47;;
13660;SDS011;6903;49.480;11.102;2022-09-01T11:06:59;2.97;;;2.63;;
13660;SDS011;6903;49.480;11.102;2022-09-01T11:09:33;2.30;;;2.10;;
13660;SDS011;6903;49.480;11.102;2022-09-01T11:12:09;2.67;;;1.98;;
13660;SDS011;6903;49.480;11.102;2022-09-01T11:14:59;3.05;;;2.00;;
13660;SDS011;6903;49.480;11.102;2022-09-01T11:17:27;2.40;;;2.20;;
13660;SDS011;6903;49.480;11.102;2022-09-01T11:20:09;3.35;;;2.13;;
13660;SDS011;6903;49.480;11.102;2022-09-01T11:25:35;2.53;;;2.33;;
13660;SDS011;6903;49.480;11.102;2022-09-01T11:30:42;3.40;;;2.33;;
13660;SDS011;6903;49.480;11.102;2022-09-01T11:35:42;2.63;;;2.42;;
13660;SDS011;6903;49.480;11.102;2022-09-01T11:38:10;3.40;;;2.42;;
13660;SDS011;6903;49.480;11.102;2022-09-01T11:40:38;2.75;;;2.47;;
13660;SDS011;6903;49.480;11.102;2022-09-01T11:43:09;3.00;;;2.80;;
13660;SDS011;6903;49.480;11.102;2022-09-01T11:45:47;3.55;;;3.15;;
13660;SDS011;6903;49.480;11.102;2022-09-01T11:48:20;3.55;;;2.88;;
13660;SDS011;6903;49.480;11.102;2022-09-01T11:50:46;3.53;;;2.85;;
13660;SDS011;6903;49.480;11.102;2022-09-01T11:53:23;3.40;;;2.83;;
13660;SDS011;6903;49.480;11.102;2022-09-01T11:55:51;4.05;;;2.60;;
13660;SDS011;6903;49.480;11.102;2022-09-01T12:04:19;3.85;;;2.45;;
13660;SDS011;6903;49.480;11.102;2022-09-01T12:06:52;3.60;;;2.70;;
13660;SDS011;6903;49.480;11.102;2022-09-01T12:09:17;3.30;;;3.00;;
13660;SDS011;6903;49.480;11.102;2022-09-01T12:11:43;3.10;;;2.90;;
13660;SDS011;6903;49.480;11.102;2022-09-01T12:14:09;4.38;;;2.90;;
13660;SDS011;6903;49.480;11.102;2022-09-01T12:16:36;3.85;;;2.83;;
13660;SDS011;6903;49.480;11.102;2022-09-01T12:19:04;3.22;;;2.72;;
13660;SDS011;6903;49.480;11.102;2022-09-01T12:24:31;3.90;;;3.05;;
13660;SDS011;6903;49.480;11.102;2022-09-01T12:26:50;3.10;;;2.65;;
13660;SDS011;6903;49.480;11.102;2022-09-01T12:29:18;4.10;;;2.70;;
13660;SDS011;6903;49.480;11.102;2022-09-01T12:31:46;3.53;;;2.58;;
13660;SDS011;6903;49.480;11.102;2022-09-01T12:34:30;3.40;;;2.97;;
13660;SDS011;6903;49.480;11.102;2022-09-01T12:37:23;3.45;;;2.72;;
13660;SDS011;6903;49.480;11.102;2022-09-01T12:39:53;3.28;;;2.97;;
13660;SDS011;6903;49.480;11.102;2022-09-01T12:42:28;2.85;;;2.65;;
13660;SDS011;6903;49.480;11.102;2022-09-01T12:49:58;3.05;;;2.78;;
13660;SDS011;6903;49.480;11.102;2022-09-01T12:52:25;2.97;;;2.78;;
13660;SDS011;6903;49.480;11.102;2022-09-01T12:54:53;2.70;;;2.50;;
13660;SDS011;6903;49.480;11.102;2022-09-01T12:57:34;2.88;;;2.50;;
13660;SDS011;6903;49.480;11.102;2022-09-01T13:00:05;2.70;;;2.50;;
13660;SDS011;6903;49.480;11.102;2022-09-01T13:02:34;2.70;;;2.47;;
13660;SDS011;6903;49.480;11.102;2022-09-01T13:05:25;3.10;;;2.17;;
13660;SDS011;6903;49.480;11.102;2022-09-01T13:07:56;2.25;;;2.05;;
13660;SDS011;6903;49.480;11.102;2022-09-01T13:10:24;2.38;;;2.17;;
13660;SDS011;6903;49.480;11.102;2022-09-01T13:12:52;3.00;;;2.13;;
13660;SDS011;6903;49.480;11.102;2022-09-01T13:15:19;2.97;;;2.38;;
13660;SDS011;6903;49.480;11.102;2022-09-01T13:17:45;3.92;;;2.40;;
13660;SDS011;6903;49.480;11.102;2022-09-01T13:20:12;2.30;;;2.17;;
13660;SDS011;6903;49.480;11.102;2022-09-01T13:22:38;3.47;;;2.42;;
13660;SDS011;6903;49.480;11.102;2022-09-01T13:25:05;3.67;;;2.22;;
13660;SDS011;6903;49.480;11.102;2022-09-01T13:27:31;2.25;;;2.05;;
13660;SDS011;6903;49.480;11.102;2022-09-01T13:29:56;3.17;;;2.10;;
13660;SDS011;6903;49.480;11.102;2022-09-01T13:32:22;3.08;;;2.05;;
13660;SDS011;6903;49.480;11.102;2022-09-01T13:34:49;4.28;;;2.60;;
13660;SDS011;6903;49.480;11.102;2022-09-01T13:37:16;2.97;;;2.47;;
13660;SDS011;6903;49.480;11.102;2022-09-01T13:39:41;2.67;;;2.33;;
13660;SDS011;6903;49.480;11.102;2022-09-01T13:42:06;2.50;;;2.30;;
13660;SDS011;6903;49.480;11.102;2022-09-01T13:44:32;3.70;;;2.33;;
13660;SDS011;6903;49.480;11.102;2022-09-01T13:46:58;2.47;;;2.20;;
13660;SDS011;6903;49.480;11.102;2022-09-01T13:49:23;3.45;;;2.45;;
13660;SDS011;6903;49.480;11.102;2022-09-01T13:51:50;2.28;;;2.08;;
13660;SDS011;6903;49.480;11.102;2022-09-01T13:54:15;2.55;;;2.35;;
13660;SDS011;6903;49.480;11.102;2022-09-01T13:56:41;3.72;;;2.35;;
13660;SDS011;6903;49.480;11.102;2022-09-01T13:59:06;2.15;;;2.00;;
13660;SDS011;6903;49.480;11.102;2022-09-01T14:01:32;2.53;;;2.33;;
13660;SDS011;6903;49.480;11.102;2022-09-01T14:03:57;3.58;;;2.45;;
13660;SDS011;6903;49.480;11.102;2022-09-01T14:06:23;2.38;;;2.20;;
13660;SDS011;6903;49.480;11.102;2022-09-01T14:08:48;2.70;;;2.42;;
13660;SDS011;6903;49.480;11.102;2022-09-01T14:11:17;2.60;;;2.40;;
13660;SDS011;6903;49.480;11.102;2022-09-01T14:13:43;2.58;;;2.38;;
13660;SDS011;6903;49.480;11.102;2022-09-01T14:16:13;2.30;;;2.03;;
13660;SDS011;6903;49.480;11.102;2022-09-01T14:18:39;2.03;;;1.92;;
13660;SDS011;6903;49.480;11.102;2022-09-01T14:21:05;2.45;;;2.22;;
13660;SDS011;6903;49.480;11.102;2022-09-01T14:23:35;2.50;;;2.30;;
13660;SDS011;6903;49.480;11.102;2022-09-01T14:26:00;2.63;;;2.38;;
13660;SDS011;6903;49.480;11.102;2022-09-01T14:28:25;2.47;;;1.88;;
13660;SDS011;6903;49.480;11.102;2022-09-01T14:30:51;2.40;;;2.20;;
13660;SDS011;6903;49.480;11.102;2022-09-01T14:33:16;2.78;;;2.03;;
13660;SDS011;6903;49.480;11.102;2022-09-01T14:35:44;3.40;;;2.20;;
13660;SDS011;6903;49.480;11.102;2022-09-01T14:38:10;2.65;;;2.13;;
13660;SDS011;6903;49.480;11.102;2022-09-01T14:40:38;2.40;;;2.20;;
13660;SDS011;6903;49.480;11.102;2022-09-01T14:43:05;2.55;;;2.22;;
13660;SDS011;6903;49.480;11.102;2022-09-01T14:45:33;3.30;;;1.90;;
13660;SDS011;6903;49.480;11.102;2022-09-01T14:48:01;2.80;;;2.20;;
13660;SDS011;6903;49.480;11.102;2022-09-01T14:50:27;2.40;;;2.20;;
13660;SDS011;6903;49.480;11.102;2022-09-01T14:52:56;2.10;;;1.90;;
13660;SDS011;6903;49.480;11.102;2022-09-01T14:55:23;3.20;;;2.47;;
13660;SDS011;6903;49.480;11.102;2022-09-01T14:57:50;2.50;;;2.30;;
13660;SDS011;6903;49.480;11.102;2022-09-01T15:00:16;2.60;;;2.40;;
13660;SDS011;6903;49.480;11.102;2022-09-01T15:02:43;2.38;;;2.17;;
13660;SDS011;6903;49.480;11.102;2022-09-01T15:05:09;3.65;;;2.00;;
13660;SDS011;6903;49.480;11.102;2022-09-01T15:07:36;2.63;;;2.28;;
13660;SDS011;6903;49.480;11.102;2022-09-01T15:10:03;2.42;;;2.22;;
13660;SDS011;6903;49.480;11.102;2022-09-01T15:12:30;2.75;;;2.17;;
13660;SDS011;6903;49.480;11.102;2022-09-01T15:14:56;2.70;;;2.28;;
13660;SDS011;6903;49.480;11.102;2022-09-01T15:17:22;2.65;;;2.45;;
13660;SDS011;6903;49.480;11.102;2022-09-01T15:19:48;3.28;;;2.40;;
13660;SDS011;6903;49.480;11.102;2022-09-01T15:22:13;2.83;;;2.58;;
13660;SDS011;6903;49.480;11.102;2022-09-01T15:24:40;3.05;;;2.67;;
13660;SDS011;6903;49.480;11.102;2022-09-01T15:27:05;2.85;;;2.55;;
13660;SDS011;6903;49.480;11.102;2022-09-01T15:29:31;3.35;;;2.55;;
13660;SDS011;6903;49.480;11.102;2022-09-01T15:31:58;2.67;;;2.47;;
13660;SDS011;6903;49.480;11.102;2022-09-01T15:34:24;2.90;;;2.60;;
13660;SDS011;6903;49.480;11.102;2022-09-01T15:36:49;2.58;;;2.38;;
13660;SDS011;6903;49.480;11.102;2022-09-01T15:39:14;3.33;;;2.80;;
13660;SDS011;6903;49.480;11.102;2022-09-01T15:41:42;2.67;;;2.47;;
13660;SDS011;6903;49.480;11.102;2022-09-01T15:44:08;2.58;;;2.38;;
13660;SDS011;6903;49.480;11.102;2022-09-01T15:46:35;2.67;;;2.47;;
13660;SDS011;6903;49.480;11.102;2022-09-01T15:49:03;2.80;;;2.60;;
13660;SDS011;6903;49.480;11.102;2022-09-01T15:51:34;3.03;;;2.35;;
13660;SDS011;6903;49.480;11.102;2022-09-01T15:54:05;2.88;;;2.20;;
13660;SDS011;6903;49.480;11.102;2022-09-01T15:56:32;3.28;;;2.70;;
13660;SDS011;6903;49.480;11.102;2022-09-01T15:58:58;4.25;;;2.60;;
13660;SDS011;6903;49.480;11.102;2022-09-01T16:01:24;4.28;;;2.28;;